createdAt,value
2023-04-15T00:01:19.888Z,99693.39
2023-04-15T00:03:54.978Z,99694.77
2023-04-15T00:06:29.767Z,99692.01
2023-04-15T00:09:01.881Z,99694.28
2023-04-15T00:11:34.372Z,99693.38
2023-04-15T00:14:07.614Z,99694.29
2023-04-15T00:16:39.696Z,99693.88
2023-04-15T00:19:12.346Z,99694.58
2023-04-15T00:21:44.694Z,99696.16
2023-04-15T00:24:16.881Z,99694.48
2023-04-15T00:26:49.217Z,99693.66
2023-04-15T00:29:21.315Z,99692.67
2023-04-15T00:31:53.583Z,99691.42
2023-04-15T00:34:26.506Z,99690.90
2023-04-15T00:36:58.512Z,99686.91
2023-04-15T00:39:31.030Z,99687.34
2023-04-15T00:42:03.676Z,99685.79
2023-04-15T00:44:35.852Z,99683.98
2023-04-15T00:47:09.174Z,99684.65
2023-04-15T00:49:41.893Z,99687.41
2023-04-15T00:52:14.750Z,99687.23
2023-04-15T00:54:46.973Z,99685.06
2023-04-15T00:57:20.048Z,99685.39
2023-04-15T00:59:53.373Z,99688.17
2023-04-15T01:02:27.460Z,99685.89
2023-04-15T01:05:01.293Z,99686.23
2023-04-15T01:07:33.549Z,99689.13
2023-04-15T01:10:06.451Z,99686.08
2023-04-15T01:12:39.716Z,99685.31
2023-04-15T01:15:13.477Z,99686.14
2023-04-15T01:17:46.461Z,99688.03
2023-04-15T01:20:18.746Z,99686.50
2023-04-15T01:22:51.405Z,99689.15
2023-04-15T01:25:29.146Z,99691.16
2023-04-15T01:28:02.431Z,99691.42
2023-04-15T01:30:38.361Z,99691.31
2023-04-15T01:33:10.733Z,99693.15
2023-04-15T01:35:44.595Z,99690.12
2023-04-15T01:38:16.635Z,99686.27
2023-04-15T01:40:50.545Z,99689.03
2023-04-15T01:43:22.628Z,99690.00
2023-04-15T01:45:55.429Z,99685.67
2023-04-15T01:48:30.157Z,99687.44
2023-04-15T01:51:02.545Z,99686.20
2023-04-15T01:53:36.104Z,99686.70
2023-04-15T01:56:09.407Z,99684.02
2023-04-15T01:58:41.901Z,99684.78
2023-04-15T02:01:15.536Z,99688.27
2023-04-15T02:03:48.335Z,99688.92
2023-04-15T02:06:21.370Z,99686.87
2023-04-15T02:08:53.768Z,99687.36
2023-04-15T02:11:25.794Z,99681.83
2023-04-15T02:13:58.987Z,99681.38
2023-04-15T02:16:31.675Z,99682.95
2023-04-15T02:19:04.415Z,99679.25
2023-04-15T02:21:36.858Z,99679.59
2023-04-15T02:24:09.603Z,99679.50
2023-04-15T02:26:41.911Z,99678.30
2023-04-15T02:29:14.470Z,99680.51
2023-04-15T02:31:46.882Z,99676.67
2023-04-15T02:34:19.480Z,99678.77
2023-04-15T02:36:55.632Z,99676.36
2023-04-15T02:39:30.654Z,99678.02
2023-04-15T02:42:02.873Z,99676.02
2023-04-15T02:44:36.648Z,99674.11
2023-04-15T02:47:09.398Z,99676.23
2023-04-15T02:49:41.497Z,99675.33
2023-04-15T02:52:14.234Z,99672.90
2023-04-15T02:54:46.163Z,99673.36
2023-04-15T02:57:18.049Z,99671.34
2023-04-15T02:59:50.177Z,99668.81
2023-04-15T03:03:15.953Z,99668.86
2023-04-15T03:05:57.504Z,99669.41
2023-04-15T03:08:30.018Z,99673.96
2023-04-15T03:11:02.885Z,99671.66
2023-04-15T03:13:35.688Z,99671.80
2023-04-15T03:16:14.131Z,99672.36
2023-04-15T03:18:47.210Z,99674.13
2023-04-15T03:21:20.608Z,99670.41
2023-04-15T03:23:54.004Z,99671.64
2023-04-15T03:26:30.757Z,99668.33
2023-04-15T03:29:08.354Z,99665.14
2023-04-15T03:31:40.637Z,99671.90
2023-04-15T03:34:13.290Z,99675.63
2023-04-15T03:36:45.843Z,99672.63
2023-04-15T03:39:18.968Z,99670.84
2023-04-15T03:41:51.363Z,99674.75
2023-04-15T03:44:23.519Z,99671.91
2023-04-15T03:46:59.448Z,99677.68
2023-04-15T03:49:31.465Z,99671.87
2023-04-15T03:52:03.395Z,99676.15
2023-04-15T03:54:35.542Z,99674.02
2023-04-15T03:57:07.550Z,99676.42
2023-04-15T03:59:40.103Z,99677.70
2023-04-15T04:02:12.160Z,99678.27
2023-04-15T04:04:51.167Z,99675.67
2023-04-15T04:07:24.840Z,99676.70
2023-04-15T04:09:57.753Z,99680.55
2023-04-15T04:12:29.693Z,99680.23
2023-04-15T04:15:01.807Z,99678.57
2023-04-15T04:17:33.821Z,99680.88
2023-04-15T04:20:06.809Z,99679.88
2023-04-15T04:22:41.922Z,99683.60
2023-04-15T04:25:14.611Z,99681.86
2023-04-15T04:27:46.515Z,99681.30
2023-04-15T04:30:18.720Z,99676.02
2023-04-15T04:32:52.578Z,99682.52
2023-04-15T04:35:27.103Z,99679.92
2023-04-15T04:37:58.976Z,99682.35
2023-04-15T04:40:31.207Z,99685.02
2023-04-15T04:43:03.410Z,99684.05
2023-04-15T04:45:39.563Z,99682.66
2023-04-15T04:48:11.659Z,99681.88
2023-04-15T04:50:43.743Z,99681.59
2023-04-15T04:53:16.329Z,99682.02
2023-04-15T04:55:48.344Z,99680.39
2023-04-15T04:58:20.307Z,99678.86
2023-04-15T05:00:52.488Z,99684.19
2023-04-15T05:03:25.347Z,99678.70
2023-04-15T05:05:57.528Z,99682.21
2023-04-15T05:08:29.391Z,99681.65
2023-04-15T05:11:03.806Z,99681.76
2023-04-15T05:13:38.730Z,99682.75
2023-04-15T05:16:10.943Z,99683.30
2023-04-15T05:18:42.844Z,99685.97
2023-04-15T05:21:15.903Z,99690.80
2023-04-15T05:23:48.207Z,99691.86
2023-04-15T05:26:21.777Z,99691.69
2023-04-15T05:28:53.922Z,99688.38
2023-04-15T05:31:28.242Z,99689.05
2023-04-15T05:34:00.455Z,99685.98
2023-04-15T05:36:33.032Z,99690.55
2023-04-15T05:39:05.120Z,99687.01
2023-04-15T05:41:38.201Z,99690.02
2023-04-15T05:44:10.099Z,99692.22
2023-04-15T05:46:42.578Z,99693.92
2023-04-15T05:49:14.493Z,99696.84
2023-04-15T05:51:48.372Z,99692.71
2023-04-15T05:54:20.445Z,99694.77
2023-04-15T05:56:52.506Z,99695.73
2023-04-15T05:59:24.469Z,99698.27
2023-04-15T06:02:01.636Z,99694.98
2023-04-15T06:04:33.597Z,99698.33
2023-04-15T06:07:06.259Z,99697.09
2023-04-15T06:09:38.853Z,99697.15
2023-04-15T06:12:12.442Z,99696.30
2023-04-15T06:14:44.958Z,99700.52
2023-04-15T06:17:19.196Z,99703.52
2023-04-15T06:19:55.682Z,99703.11
2023-04-15T06:22:30.192Z,99703.70
2023-04-15T06:25:04.646Z,99709.05
2023-04-15T06:27:36.903Z,99710.45
2023-04-15T06:30:10.834Z,99711.14
2023-04-15T06:32:42.893Z,99712.97
2023-04-15T06:35:14.749Z,99713.49
2023-04-15T06:37:47.537Z,99714.14
2023-04-15T06:40:19.808Z,99718.55
2023-04-15T06:42:51.899Z,99720.27
2023-04-15T06:45:23.789Z,99719.02
2023-04-15T06:47:56.221Z,99717.32
2023-04-15T06:50:28.343Z,99722.61
2023-04-15T06:53:00.782Z,99721.09
2023-04-15T06:55:34.096Z,99722.14
2023-04-15T06:58:06.509Z,99724.82
2023-04-15T07:00:39.344Z,99729.67
2023-04-15T07:03:13.564Z,99730.73
2023-04-15T07:05:46.015Z,99732.21
2023-04-15T07:08:18.378Z,99736.01
2023-04-15T07:10:54.359Z,99738.52
2023-04-15T07:13:27.154Z,99738.21
2023-04-15T07:16:01.750Z,99740.10
2023-04-15T07:18:34.168Z,99740.95
2023-04-15T07:21:06.493Z,99748.20
2023-04-15T07:23:39.090Z,99747.40
2023-04-15T07:26:11.434Z,99742.82
2023-04-15T07:28:43.935Z,99743.11
2023-04-15T07:31:20.121Z,99746.80
2023-04-15T07:34:10.367Z,99749.30
2023-04-15T07:36:54.184Z,99747.38
2023-04-15T07:39:30.365Z,99747.07
2023-04-15T07:42:02.695Z,99750.25
2023-04-15T07:44:34.749Z,99747.91
2023-04-15T07:47:07.001Z,99743.98
2023-04-15T07:49:39.051Z,99743.14
2023-04-15T07:52:11.228Z,99741.58
2023-04-15T07:54:43.316Z,99742.04
2023-04-15T07:57:18.549Z,99744.46
2023-04-15T07:59:50.929Z,99742.49
2023-04-15T08:02:23.649Z,99742.98
2023-04-15T08:04:56.378Z,99746.11
2023-04-15T08:07:28.455Z,99746.21
2023-04-15T08:10:00.703Z,99746.98
2023-04-15T08:12:33.685Z,99748.36
2023-04-15T08:15:08.306Z,99744.64
2023-04-15T08:17:40.725Z,99744.77
2023-04-15T08:20:14.479Z,99746.69
2023-04-15T08:22:47.930Z,99751.34
2023-04-15T08:25:20.336Z,99747.02
2023-04-15T08:27:52.547Z,99745.59
2023-04-15T08:30:26.773Z,99749.87
2023-04-15T08:32:58.857Z,99747.64
2023-04-15T08:35:30.862Z,99748.95
2023-04-15T08:38:03.250Z,99747.30
2023-04-15T08:40:48.921Z,99748.75
2023-04-15T08:43:26.645Z,99750.69
2023-04-15T08:46:01.751Z,99748.37
2023-04-15T08:48:40.552Z,99752.11
2023-04-15T08:51:16.167Z,99752.95
2023-04-15T08:53:49.299Z,99755.07
2023-04-15T08:56:26.152Z,99756.27
2023-04-15T08:58:59.381Z,99756.02
2023-04-15T09:01:31.829Z,99752.17
2023-04-15T09:04:08.197Z,99759.80
2023-04-15T09:06:42.891Z,99755.60
2023-04-15T09:09:15.532Z,99752.86
2023-04-15T09:11:51.716Z,99757.98
2023-04-15T09:14:24.285Z,99754.35
2023-04-15T09:21:44.315Z,99755.08
2023-04-15T09:24:18.838Z,99752.55
2023-04-15T09:26:53.423Z,99752.85
2023-04-15T09:29:29.692Z,99758.63
2023-04-15T09:32:12.602Z,99756.85
2023-04-15T09:34:46.052Z,99758.78
2023-04-15T09:37:31.644Z,99758.90
2023-04-15T09:40:04.407Z,99760.75
2023-04-15T09:42:36.285Z,99760.95
2023-04-15T09:45:14.869Z,99763.34
2023-04-15T09:47:49.952Z,99767.45
2023-04-15T09:50:22.581Z,99767.30
2023-04-15T09:52:54.699Z,99769.34
2023-04-15T09:55:26.822Z,99767.30
2023-04-15T09:57:58.744Z,99769.01
2023-04-15T10:00:32.212Z,99771.23
2023-04-15T10:03:05.273Z,99772.46
2023-04-15T10:05:38.745Z,99770.63
2023-04-15T10:08:13.061Z,99772.64
2023-04-15T10:10:45.657Z,99774.42
2023-04-15T10:13:22.443Z,99773.33
2023-04-15T10:15:59.158Z,99770.92
2023-04-15T10:18:33.653Z,99772.46
2023-04-15T10:21:10.048Z,99771.02
2023-04-15T10:23:42.573Z,99770.38
2023-04-15T10:26:17.763Z,99772.92
2023-04-15T10:28:50.747Z,99775.69
2023-04-15T10:31:24.313Z,99772.73
2023-04-15T10:33:58.291Z,99775.56
2023-04-15T10:36:31.061Z,99774.44
2023-04-15T10:39:05.729Z,99771.58
2023-04-15T10:41:38.071Z,99771.23
2023-04-15T10:44:10.170Z,99771.36
2023-04-15T10:46:44.297Z,99769.94
2023-04-15T10:49:20.171Z,99770.40
2023-04-15T10:51:59.347Z,99771.23
2023-04-15T10:54:40.544Z,99773.88
2023-04-15T10:57:23.186Z,99774.89
2023-04-15T11:00:13.024Z,99776.75
2023-04-15T11:02:53.401Z,99783.14
2023-04-15T11:05:44.559Z,99786.16
2023-04-15T11:08:16.729Z,99789.86
2023-04-15T11:10:57.828Z,99785.27
2023-04-15T11:13:34.460Z,99783.52
2023-04-15T11:16:07.398Z,99782.88
2023-04-15T11:18:39.484Z,99779.77
2023-04-15T11:21:14.709Z,99783.54
2023-04-15T11:23:47.696Z,99785.42
2023-04-15T11:26:19.992Z,99784.04
2023-04-15T11:28:52.199Z,99785.83
2023-04-15T11:31:24.610Z,99788.55
2023-04-15T11:34:02.637Z,99793.06
2023-04-15T11:36:37.919Z,99795.60
2023-04-15T11:39:10.261Z,99793.25
2023-04-15T11:41:46.520Z,99797.76
2023-04-15T11:44:21.273Z,99795.27
2023-04-15T11:47:05.167Z,99792.73
2023-04-15T11:49:41.650Z,99797.49
2023-04-15T11:52:15.261Z,99798.16
2023-04-15T11:54:47.422Z,99796.83
2023-04-15T11:57:20.271Z,99799.49
2023-04-15T11:59:56.169Z,99798.96
2023-04-15T12:02:34.458Z,99801.67
2023-04-15T12:05:12.752Z,99804.60
2023-04-15T12:08:03.997Z,99809.30
2023-04-15T12:10:36.078Z,99814.34
2023-04-15T12:13:11.134Z,99811.94
2023-04-15T12:15:43.919Z,99816.49
2023-04-15T12:18:23.992Z,99818.88
2023-04-15T12:20:58.538Z,99821.66
2023-04-15T12:23:32.057Z,99822.29
2023-04-15T12:26:08.339Z,99827.61
2023-04-15T12:28:43.752Z,99826.71
2023-04-15T12:31:17.400Z,99825.41
2023-04-15T12:33:51.094Z,99830.35
2023-04-15T12:36:23.141Z,99834.69
2023-04-15T12:38:56.434Z,99836.86
2023-04-15T12:41:28.500Z,99841.19
2023-04-15T12:44:01.287Z,99840.88
2023-04-15T12:46:33.997Z,99841.54
2023-04-15T12:49:07.295Z,99843.10
2023-04-15T12:51:39.336Z,99842.45
2023-04-15T12:54:11.607Z,99846.65
2023-04-15T12:56:43.803Z,99842.04
2023-04-15T12:59:17.303Z,99839.34
2023-04-15T13:01:49.872Z,99838.10
2023-04-15T13:04:22.763Z,99844.34
2023-04-15T13:06:54.933Z,99849.08
2023-04-15T13:09:27.818Z,99850.63
2023-04-15T13:12:00.297Z,99847.65
2023-04-15T13:14:32.836Z,99849.28
2023-04-15T13:17:10.331Z,99849.37
2023-04-15T13:19:42.800Z,99852.50
2023-04-15T13:22:15.557Z,99853.98
2023-04-15T13:24:49.195Z,99862.13
2023-04-15T13:27:21.524Z,99862.88
2023-04-15T13:29:53.836Z,99867.31
2023-04-15T13:32:27.189Z,99871.39
2023-04-15T13:35:00.156Z,99870.59
2023-04-15T13:37:32.797Z,99872.52
2023-04-15T13:40:07.384Z,99878.27
2023-04-15T13:42:39.357Z,99881.23
2023-04-15T13:45:12.988Z,99884.73
2023-04-15T13:47:45.103Z,99886.01
2023-04-15T13:50:17.472Z,99883.20
2023-04-15T13:52:49.623Z,99885.39
2023-04-15T13:55:24.551Z,99886.81
2023-04-15T13:57:59.185Z,99892.69
2023-04-15T14:00:31.944Z,99893.01
2023-04-15T14:03:04.149Z,99889.05
2023-04-15T14:05:37.474Z,99890.65
2023-04-15T14:08:10.096Z,99890.64
2023-04-15T14:10:44.633Z,99890.55
2023-04-15T14:13:16.544Z,99888.38
2023-04-15T14:15:49.075Z,99889.06
2023-04-15T14:18:21.138Z,99891.19
2023-04-15T14:20:53.463Z,99898.89
2023-04-15T14:23:26.262Z,99901.83
2023-04-15T14:25:59.012Z,99903.00
2023-04-15T14:28:32.358Z,99904.00
2023-04-15T14:31:05.161Z,99905.95
2023-04-15T14:33:37.315Z,99907.98
2023-04-15T14:36:10.817Z,99907.68
2023-04-15T14:38:42.786Z,99905.90
2023-04-15T14:41:15.463Z,99908.82
2023-04-15T14:43:47.618Z,99912.70
2023-04-15T14:46:20.062Z,99906.61
2023-04-15T14:48:54.774Z,99909.20
2023-04-15T14:51:27.430Z,99908.38
2023-04-15T14:53:59.451Z,99912.86
2023-04-15T14:56:32.143Z,99913.86
2023-04-15T14:59:04.425Z,99909.69
2023-04-15T15:01:37.731Z,99913.63
2023-04-15T15:04:11.500Z,99909.52
2023-04-15T15:06:45.471Z,99915.27
2023-04-15T15:09:23.933Z,99918.30
2023-04-15T15:11:59.147Z,99922.57
2023-04-15T15:14:34.853Z,99932.51
2023-04-15T15:17:07.538Z,99936.11
2023-04-15T15:19:39.882Z,99930.98
2023-04-15T15:22:12.600Z,99936.41
2023-04-15T15:24:47.051Z,99936.57
2023-04-15T15:27:19.803Z,99931.52
2023-04-15T15:29:52.149Z,99932.34
2023-04-15T15:32:24.305Z,99932.61
2023-04-15T15:34:56.602Z,99934.66
2023-04-15T15:37:31.606Z,99939.55
2023-04-15T15:40:05.849Z,99939.70
2023-04-15T15:42:37.892Z,99940.80
2023-04-15T15:45:11.196Z,99937.21
2023-04-15T15:47:44.384Z,99936.74
2023-04-15T15:50:16.994Z,99938.58
2023-04-15T15:52:49.116Z,99944.90
2023-04-15T15:55:21.915Z,99950.48
2023-04-15T15:57:54.228Z,99951.11
2023-04-15T16:00:28.659Z,99950.32
2023-04-15T16:05:36.257Z,99954.64
2023-04-15T16:08:11.670Z,99955.80
2023-04-15T16:10:43.716Z,99956.41
2023-04-15T16:13:16.440Z,99964.02
2023-04-15T16:15:50.013Z,99963.81
2023-04-15T16:18:22.170Z,99967.54
2023-04-15T16:20:54.600Z,99973.00
2023-04-15T16:23:27.722Z,99979.35
2023-04-15T16:26:00.110Z,99981.10
2023-04-15T16:28:32.382Z,99985.92
2023-04-15T16:31:04.623Z,99990.31
2023-04-15T16:33:36.924Z,99985.75
2023-04-15T16:36:11.608Z,99985.27
2023-04-15T16:38:45.448Z,99991.69
2023-04-15T16:41:18.758Z,99993.38
2023-04-15T16:43:51.429Z,99996.33
2023-04-15T16:46:23.585Z,99999.96
2023-04-15T16:48:56.395Z,100003.64
2023-04-15T16:51:29.159Z,100006.94
2023-04-15T16:54:02.113Z,100009.05
2023-04-15T16:56:34.128Z,100018.50
2023-04-15T16:59:06.417Z,100022.82
2023-04-15T17:01:39.102Z,100035.30
2023-04-15T17:04:11.953Z,100036.49
2023-04-15T17:06:44.473Z,100037.13
2023-04-15T17:09:16.905Z,100039.40
2023-04-15T17:11:49.147Z,100041.56
2023-04-15T17:14:21.556Z,100041.63
2023-04-15T17:16:53.658Z,100044.89
2023-04-15T17:19:28.658Z,100045.56
2023-04-15T17:22:01.293Z,100047.61
2023-04-15T17:24:34.195Z,100048.88
2023-04-15T17:27:07.010Z,100051.43
2023-04-15T17:29:39.362Z,100054.70
2023-04-15T17:32:13.168Z,100059.44
2023-04-15T17:34:49.884Z,100064.67
2023-04-15T17:37:23.213Z,100060.84
2023-04-15T17:39:55.896Z,100064.23
2023-04-15T17:42:30.365Z,100066.52
2023-04-15T17:45:03.187Z,100073.23
2023-04-15T17:47:35.711Z,100076.45
2023-04-15T17:50:10.226Z,100081.73
2023-04-15T17:52:42.894Z,100094.16
2023-04-15T17:55:19.105Z,100102.34
2023-04-15T17:57:51.948Z,100104.85
2023-04-15T18:00:24.744Z,100110.04
2023-04-15T18:02:58.500Z,100109.49
2023-04-15T18:05:32.449Z,100112.89
2023-04-15T18:08:04.499Z,100116.41
2023-04-15T18:10:38.542Z,100123.15
2023-04-15T18:13:10.791Z,100126.68
2023-04-15T18:15:45.679Z,100129.75
2023-04-15T18:18:19.535Z,100132.45
2023-04-15T18:20:52.325Z,100140.01
2023-04-15T18:23:24.668Z,100139.58
2023-04-15T18:26:00.534Z,100146.50
2023-04-15T18:28:33.003Z,100152.09
2023-04-15T18:31:08.788Z,100155.82
2023-04-15T18:33:41.760Z,100159.27
2023-04-15T18:36:14.429Z,100157.27
2023-04-15T18:38:47.740Z,100156.75
2023-04-15T18:41:20.346Z,100166.17
2023-04-15T18:43:52.485Z,100165.98
2023-04-15T18:46:25.901Z,100166.27
2023-04-15T18:48:58.134Z,100160.20
2023-04-15T18:51:32.926Z,100158.23
2023-04-15T18:54:05.213Z,100159.31
2023-04-15T18:56:38.034Z,100160.74
2023-04-15T18:59:29.572Z,100164.05
2023-04-15T19:02:07.843Z,100170.30
2023-04-15T19:04:39.861Z,100171.98
2023-04-15T19:07:13.940Z,100177.22
2023-04-15T19:09:46.619Z,100182.11
2023-04-15T19:12:18.989Z,100188.81
2023-04-15T19:14:52.897Z,100191.35
2023-04-15T19:17:25.753Z,100196.03
2023-04-15T19:19:57.848Z,100199.42
2023-04-15T19:22:32.489Z,100202.92
2023-04-15T19:25:04.755Z,100205.48
2023-04-15T19:27:38.417Z,100207.63
2023-04-15T19:30:14.095Z,100207.74
2023-04-15T19:32:46.625Z,100210.00
2023-04-15T19:35:19.076Z,100215.77
2023-04-15T19:37:51.403Z,100220.52
2023-04-15T19:40:23.866Z,100224.33
2023-04-15T19:42:57.103Z,100226.39
2023-04-15T19:45:32.583Z,100230.34
2023-04-15T19:48:06.432Z,100229.16
2023-04-15T19:50:38.548Z,100230.07
2023-04-15T19:53:10.888Z,100231.48
2023-04-15T19:55:48.659Z,100239.08
2023-04-15T19:58:21.375Z,100242.86
2023-04-15T20:00:55.352Z,100242.06
2023-04-15T20:03:30.079Z,100246.09
2023-04-15T20:06:02.443Z,100244.19
2023-04-15T20:08:34.704Z,100243.27
2023-04-15T20:11:07.106Z,100246.51
2023-04-15T20:13:39.853Z,100247.73
2023-04-15T20:16:12.993Z,100249.79
2023-04-15T20:18:45.395Z,100246.58
2023-04-15T20:21:17.638Z,100251.13
2023-04-15T20:23:52.592Z,100254.92
2023-04-15T20:26:25.764Z,100252.79
2023-04-15T20:28:58.301Z,100247.30
2023-04-15T20:31:34.439Z,100249.90
2023-04-15T20:34:08.808Z,100247.10
2023-04-15T20:36:42.927Z,100243.50
2023-04-15T20:39:15.252Z,100241.89
2023-04-15T20:41:47.372Z,100241.75
2023-04-15T20:44:19.990Z,100241.38
2023-04-15T20:46:51.974Z,100239.44
2023-04-15T20:49:26.506Z,100243.50
2023-04-15T20:51:59.043Z,100244.70
2023-04-15T20:54:31.827Z,100246.40
2023-04-15T20:57:04.069Z,100242.77
2023-04-15T20:59:36.259Z,100247.34
2023-04-15T21:02:08.435Z,100248.91
2023-04-15T21:04:41.062Z,100249.77
2023-04-15T21:07:14.377Z,100250.63
2023-04-15T21:09:47.173Z,100249.44
2023-04-15T21:12:19.658Z,100254.17
2023-04-15T21:14:52.485Z,100256.98
2023-04-15T21:17:24.603Z,100259.38
2023-04-15T21:19:56.658Z,100260.64
2023-04-15T21:22:28.688Z,100265.63
2023-04-15T21:25:01.228Z,100262.87
2023-04-15T21:27:33.432Z,100265.91
2023-04-15T21:30:06.701Z,100268.54
2023-04-15T21:32:38.837Z,100270.44
2023-04-15T21:35:12.243Z,100274.55
2023-04-15T21:37:44.352Z,100272.82
2023-04-15T21:40:18.719Z,100278.16
2023-04-15T21:42:52.805Z,100277.73
2023-04-15T21:45:26.599Z,100275.77
2023-04-15T21:48:07.710Z,100280.59
2023-04-15T21:50:41.619Z,100281.17
2023-04-15T21:53:13.731Z,100285.25
2023-04-15T21:55:45.933Z,100286.38
2023-04-15T21:58:19.249Z,100287.05
2023-04-15T22:00:52.957Z,100289.23
2023-04-15T22:03:27.317Z,100289.72
2023-04-15T22:05:59.810Z,100287.95
2023-04-15T22:08:38.698Z,100289.00
2023-04-15T22:11:27.845Z,100294.17
2023-04-15T22:14:01.211Z,100298.23
2023-04-15T22:16:33.497Z,100301.28
2023-04-15T22:19:05.843Z,100302.33
2023-04-15T22:21:38.476Z,100305.89
2023-04-15T22:24:31.909Z,100309.25
2023-04-15T22:27:02.899Z,100310.31
2023-04-15T22:29:34.959Z,100314.80
2023-04-15T22:32:08.482Z,100315.42
2023-04-15T22:34:40.327Z,100316.33
2023-04-15T22:37:13.828Z,100313.38
2023-04-15T22:39:45.954Z,100318.86
2023-04-15T22:42:18.065Z,100324.21
2023-04-15T22:44:50.320Z,100325.63
2023-04-15T22:47:22.522Z,100325.20
2023-04-15T22:49:54.536Z,100323.89
2023-04-15T22:52:31.006Z,100326.55
2023-04-15T22:55:04.090Z,100330.05
2023-04-15T22:57:36.378Z,100330.75
2023-04-15T23:00:10.459Z,100334.19
2023-04-15T23:02:42.666Z,100330.99
2023-04-15T23:05:14.746Z,100331.20
2023-04-15T23:07:47.217Z,100338.07
2023-04-15T23:10:19.247Z,100335.90
2023-04-15T23:12:51.648Z,100334.70
2023-04-15T23:15:23.924Z,100332.27
2023-04-15T23:17:58.395Z,100336.72
2023-04-15T23:20:30.584Z,100337.55
2023-04-15T23:23:02.644Z,100333.50
2023-04-15T23:25:34.510Z,100337.23
2023-04-15T23:28:07.012Z,100334.83
2023-04-15T23:30:39.279Z,100334.89
2023-04-15T23:33:12.255Z,100333.59
2023-04-15T23:35:44.251Z,100335.39
2023-04-15T23:38:16.584Z,100335.08
2023-04-15T23:40:48.637Z,100337.27
2023-04-15T23:43:21.160Z,100335.16
2023-04-15T23:45:53.825Z,100335.94
2023-04-15T23:48:26.684Z,100336.23
2023-04-15T23:51:02.145Z,100337.02
2023-04-15T23:53:34.632Z,100337.59
2023-04-15T23:56:07.391Z,100339.66
2023-04-15T23:58:39.999Z,100338.10
